Time;durP1;ratioP1;P1;durP2;ratioP2;P2;SDS_P1;SDS_P2;PMS_P1;PMS_P2;Temp;Humidity;BMP_temperature;BMP_pressure;BME280_temperature;BME280_humidity;BME280_pressure;Samples;Min_cycle;Max_cycle;Signal;HPM_P1;HPM_P2
2021/10/15 00:00:59;;;;;;;14.55;9.68;;;;;;;;;;5068245;28;20680;-70
2021/10/15 00:03:24;;;;;;;11.48;9.75;;;;;;;;;;5070646;28;20205;-70
2021/10/15 00:05:49;;;;;;;11.63;9.90;;;;;;;;;;5067054;28;20250;-70
2021/10/15 00:08:14;;;;;;;14.20;10.00;;;;;;;;;;5068896;28;20200;-71
2021/10/15 00:10:40;;;;;;;12.68;9.82;;;;;;;;;;5067961;28;20198;-71
2021/10/15 00:13:05;;;;;;;11.00;9.73;;;;;;;;;;5065112;28;20249;-71
2021/10/15 00:15:30;;;;;;;13.48;10.48;;;;;;;;;;5069255;28;20188;-70
2021/10/15 00:17:55;;;;;;;15.93;10.40;;;;;;;;;;5068674;28;20274;-70
2021/10/15 00:20:21;;;;;;;12.80;9.23;;;;;;;;;;5068530;28;20180;-71
2021/10/15 00:22:46;;;;;;;11.30;9.00;;;;;;;;;;5068890;28;20188;-70
2021/10/15 00:25:11;;;;;;;14.48;10.07;;;;;;;;;;5069290;28;20191;-71
2021/10/15 00:27:36;;;;;;;13.95;9.43;;;;;;;;;;5069669;28;20209;-70
2021/10/15 00:30:02;;;;;;;10.68;8.88;;;;;;;;;;5062872;28;20268;-71
2021/10/15 00:32:27;;;;;;;16.20;9.73;;;;;;;;;;5045282;28;20181;-70
2021/10/15 00:34:52;;;;;;;15.85;9.43;;;;;;;;;;5068811;28;20221;-70
2021/10/15 00:37:19;;;;;;;14.83;9.67;;;;;;;;;;5067041;28;20201;-71
2021/10/15 00:39:44;;;;;;;11.32;8.73;;;;;;;;;;5068786;28;20468;-70
2021/10/15 00:42:09;;;;;;;17.58;11.55;;;;;;;;;;5064527;28;20232;-71
2021/10/15 00:44:38;;;;;;;10.65;8.20;;;;;;;;;;5060802;28;20177;-71
2021/10/15 00:47:03;;;;;;;18.25;9.40;;;;;;;;;;5064058;28;20196;-70
2021/10/15 00:49:28;;;;;;;14.88;9.40;;;;;;;;;;5068955;28;20177;-71
2021/10/15 00:51:54;;;;;;;11.32;9.35;;;;;;;;;;5068551;28;20177;-71
2021/10/15 00:54:19;;;;;;;13.30;9.50;;;;;;;;;;5068640;28;20252;-70
2021/10/15 00:56:45;;;;;;;14.98;8.70;;;;;;;;;;5068256;28;20200;-71
2021/10/15 00:59:11;;;;;;;13.15;9.25;;;;;;;;;;5068457;28;20275;-70
2021/10/15 01:01:36;;;;;;;13.30;9.48;;;;;;;;;;5066752;28;20201;-70
2021/10/15 01:04:02;;;;;;;14.43;8.77;;;;;;;;;;5068182;28;20184;-71
2021/10/15 01:06:28;;;;;;;12.48;9.30;;;;;;;;;;5059926;28;20196;-71
2021/10/15 01:08:53;;;;;;;15.82;9.93;;;;;;;;;;5066957;28;20197;-72
2021/10/15 01:11:18;;;;;;;13.65;9.75;;;;;;;;;;5066265;28;20177;-71
2021/10/15 01:13:44;;;;;;;12.80;10.02;;;;;;;;;;5066918;28;20207;-71
2021/10/15 01:16:10;;;;;;;12.73;9.35;;;;;;;;;;5067954;28;20404;-71
2021/10/15 01:18:36;;;;;;;13.70;9.63;;;;;;;;;;5065931;28;20196;-71
2021/10/15 01:21:02;;;;;;;13.80;9.70;;;;;;;;;;5064910;28;22100;-71
2021/10/15 01:23:27;;;;;;;11.90;8.85;;;;;;;;;;5067340;28;20206;-71
2021/10/15 01:25:53;;;;;;;13.93;10.10;;;;;;;;;;5047922;28;20185;-71
2021/10/15 01:28:20;;;;;;;15.48;9.20;;;;;;;;;;5068465;28;20189;-71
2021/10/15 01:30:45;;;;;;;15.07;9.60;;;;;;;;;;5069266;28;20188;-72
2021/10/15 01:33:11;;;;;;;14.88;10.82;;;;;;;;;;5069179;28;20181;-71
2021/10/15 01:35:36;;;;;;;14.00;9.50;;;;;;;;;;5066760;28;20176;-71
2021/10/15 01:38:01;;;;;;;12.85;10.07;;;;;;;;;;5068843;28;20314;-71
2021/10/15 01:40:27;;;;;;;14.70;9.55;;;;;;;;;;5063957;28;20194;-71
2021/10/15 01:42:55;;;;;;;12.05;9.80;;;;;;;;;;5064917;28;20452;-71
2021/10/15 01:45:21;;;;;;;14.80;10.40;;;;;;;;;;5065755;28;20176;-71
2021/10/15 01:47:46;;;;;;;13.27;9.98;;;;;;;;;;5068050;28;20198;-71
2021/10/15 01:50:11;;;;;;;11.38;9.70;;;;;;;;;;5067020;28;20252;-71
2021/10/15 01:52:37;;;;;;;12.00;9.25;;;;;;;;;;5069074;28;20188;-72
2021/10/15 01:55:03;;;;;;;14.60;10.30;;;;;;;;;;5067179;28;20271;-71
2021/10/15 01:57:28;;;;;;;14.35;10.30;;;;;;;;;;5067801;28;20295;-69
2021/10/15 01:59:53;;;;;;;14.35;10.30;;;;;;;;;;5065839;28;20678;-70
2021/10/15 02:02:19;;;;;;;14.40;10.20;;;;;;;;;;5065589;28;20209;-69
2021/10/15 02:04:44;;;;;;;15.18;10.30;;;;;;;;;;5069820;28;20624;-69
2021/10/15 02:07:09;;;;;;;14.07;10.15;;;;;;;;;;5043814;28;20192;-69
2021/10/15 02:09:34;;;;;;;14.93;10.77;;;;;;;;;;5047764;28;20176;-69
2021/10/15 02:12:02;;;;;;;14.20;10.40;;;;;;;;;;5066571;28;20698;-69
2021/10/15 02:14:28;;;;;;;18.90;10.77;;;;;;;;;;5067820;28;20437;-68
2021/10/15 02:16:53;;;;;;;15.25;10.27;;;;;;;;;;5069663;28;20189;-69
2021/10/15 02:19:18;;;;;;;16.02;10.35;;;;;;;;;;5065895;28;20177;-69
2021/10/15 02:21:43;;;;;;;13.35;10.32;;;;;;;;;;5068396;28;20244;-70
2021/10/15 02:24:08;;;;;;;16.25;10.88;;;;;;;;;;5068953;28;20173;-69
2021/10/15 02:26:34;;;;;;;14.93;11.38;;;;;;;;;;5067407;28;20725;-69
2021/10/15 02:28:59;;;;;;;13.95;10.43;;;;;;;;;;5065831;28;20196;-69
2021/10/15 02:31:24;;;;;;;15.75;10.32;;;;;;;;;;5068395;28;20181;-70
2021/10/15 02:33:49;;;;;;;14.63;11.47;;;;;;;;;;5068700;28;20499;-68
2021/10/15 02:36:15;;;;;;;11.50;10.30;;;;;;;;;;5070999;28;20422;-69
2021/10/15 02:38:40;;;;;;;15.82;10.48;;;;;;;;;;5071794;28;20954;-69
2021/10/15 02:41:06;;;;;;;14.07;10.32;;;;;;;;;;5071198;28;20342;-70
2021/10/15 02:43:31;;;;;;;17.20;10.98;;;;;;;;;;5068340;28;20651;-71
2021/10/15 02:45:56;;;;;;;16.00;10.27;;;;;;;;;;5072265;28;20180;-69
2021/10/15 02:48:21;;;;;;;14.23;10.52;;;;;;;;;;5068665;28;20628;-69
2021/10/15 02:50:46;;;;;;;13.80;9.63;;;;;;;;;;5072201;28;20195;-69
2021/10/15 02:53:11;;;;;;;11.38;9.13;;;;;;;;;;5070500;28;20180;-69
2021/10/15 02:55:37;;;;;;;14.43;10.05;;;;;;;;;;5072415;28;20654;-69
2021/10/15 02:58:02;;;;;;;18.75;11.15;;;;;;;;;;5066389;28;20231;-70
2021/10/15 03:00:27;;;;;;;14.57;10.40;;;;;;;;;;5045574;28;20185;-68
2021/10/15 03:02:53;;;;;;;13.90;9.93;;;;;;;;;;5071148;28;20173;-69
2021/10/15 03:05:19;;;;;;;17.83;10.05;;;;;;;;;;5069256;28;20609;-68
2021/10/15 03:07:44;;;;;;;15.20;9.57;;;;;;;;;;5064471;28;20465;-69
2021/10/15 03:10:09;;;;;;;15.50;11.23;;;;;;;;;;5068997;28;20177;-69
2021/10/15 03:12:35;;;;;;;13.38;9.32;;;;;;;;;;5071009;28;20190;-69
2021/10/15 03:15:00;;;;;;;14.15;10.25;;;;;;;;;;5079286;28;20204;-70
2021/10/15 03:17:25;;;;;;;12.27;8.48;;;;;;;;;;5077717;28;20197;-69
2021/10/15 03:19:50;;;;;;;12.55;9.82;;;;;;;;;;5074970;28;20665;-70
2021/10/15 03:22:15;;;;;;;13.00;9.73;;;;;;;;;;5077190;28;20284;-70
2021/10/15 03:24:41;;;;;;;14.52;9.07;;;;;;;;;;5078919;28;20660;-69
2021/10/15 03:27:06;;;;;;;17.05;9.50;;;;;;;;;;5081284;28;20184;-70
2021/10/15 03:29:31;;;;;;;16.45;9.63;;;;;;;;;;5079771;28;20226;-70
2021/10/15 03:31:56;;;;;;;16.25;10.23;;;;;;;;;;5063258;28;20534;-70
2021/10/15 03:34:21;;;;;;;15.35;10.27;;;;;;;;;;5072087;28;20272;-69
2021/10/15 03:36:46;;;;;;;15.82;10.18;;;;;;;;;;5071571;28;20179;-70
2021/10/15 03:39:12;;;;;;;14.02;9.63;;;;;;;;;;5069929;28;20196;-70
2021/10/15 03:41:38;;;;;;;17.17;11.20;;;;;;;;;;5068928;28;20197;-69
2021/10/15 03:44:03;;;;;;;17.90;10.25;;;;;;;;;;5069680;28;20201;-70
2021/10/15 03:46:28;;;;;;;16.65;10.90;;;;;;;;;;5067637;28;20215;-69
2021/10/15 03:48:54;;;;;;;15.88;10.35;;;;;;;;;;5051338;28;20694;-69
2021/10/15 03:51:19;;;;;;;14.88;9.60;;;;;;;;;;5070891;28;20188;-69
2021/10/15 03:53:44;;;;;;;16.37;10.87;;;;;;;;;;5069382;28;20181;-69
2021/10/15 03:56:09;;;;;;;15.05;9.88;;;;;;;;;;5071354;28;20802;-70
2021/10/15 03:58:34;;;;;;;14.68;9.90;;;;;;;;;;5052274;28;20247;-69
2021/10/15 04:01:00;;;;;;;16.10;9.73;;;;;;;;;;5071789;28;20208;-70
2021/10/15 04:03:25;;;;;;;19.25;11.30;;;;;;;;;;5049596;28;20178;-69
2021/10/15 04:05:50;;;;;;;14.27;10.48;;;;;;;;;;5070437;28;20260;-69
2021/10/15 04:08:15;;;;;;;17.38;10.20;;;;;;;;;;5068174;28;20253;-69
2021/10/15 04:10:40;;;;;;;11.20;9.43;;;;;;;;;;5071335;28;20310;-69
2021/10/15 04:13:05;;;;;;;17.10;10.68;;;;;;;;;;5050734;28;20172;-69
2021/10/15 04:15:31;;;;;;;15.85;10.20;;;;;;;;;;5071959;28;20277;-70
2021/10/15 04:17:56;;;;;;;15.35;10.90;;;;;;;;;;5068922;28;20243;-69
2021/10/15 04:20:21;;;;;;;17.83;10.93;;;;;;;;;;5069591;28;20180;-69
2021/10/15 04:22:46;;;;;;;14.70;10.00;;;;;;;;;;5068519;28;20207;-69
2021/10/15 04:25:11;;;;;;;14.60;10.23;;;;;;;;;;5069719;28;20177;-69
2021/10/15 04:27:37;;;;;;;15.60;10.43;;;;;;;;;;5069377;28;20199;-69
2021/10/15 04:30:02;;;;;;;21.23;10.30;;;;;;;;;;5068121;28;20612;-68
2021/10/15 04:32:29;;;;;;;17.85;10.88;;;;;;;;;;5071249;28;20185;-69
2021/10/15 04:34:54;;;;;;;19.02;11.40;;;;;;;;;;5051223;28;20199;-69
2021/10/15 04:37:19;;;;;;;25.70;11.95;;;;;;;;;;5070660;28;20276;-68
2021/10/15 04:39:44;;;;;;;16.55;11.18;;;;;;;;;;5067878;28;20234;-69
2021/10/15 04:42:09;;;;;;;19.50;11.23;;;;;;;;;;5069428;28;20232;-69
2021/10/15 04:44:35;;;;;;;15.38;12.23;;;;;;;;;;5065877;28;20423;-69
2021/10/15 04:47:00;;;;;;;17.73;12.38;;;;;;;;;;5068016;28;20217;-69
2021/10/15 04:49:25;;;;;;;18.88;12.02;;;;;;;;;;5066835;28;20557;-70
2021/10/15 04:51:50;;;;;;;17.13;11.55;;;;;;;;;;5070258;28;20234;-69
2021/10/15 04:54:16;;;;;;;15.80;10.18;;;;;;;;;;5069285;28;20173;-69
2021/10/15 04:56:41;;;;;;;15.43;10.80;;;;;;;;;;5051178;28;20177;-70
2021/10/15 04:59:06;;;;;;;15.95;10.48;;;;;;;;;;5068258;28;20217;-68
2021/10/15 05:01:31;;;;;;;17.17;11.82;;;;;;;;;;5067551;28;20212;-69
2021/10/15 05:03:56;;;;;;;17.90;12.10;;;;;;;;;;5069555;28;20562;-69
2021/10/15 05:06:22;;;;;;;19.33;11.73;;;;;;;;;;5069686;28;20264;-69
2021/10/15 05:09:02;;;;;;;20.75;13.00;;;;;;;;;;5068162;28;20445;-69
2021/10/15 05:11:29;;;;;;;20.13;11.45;;;;;;;;;;5065702;28;20177;-70
2021/10/15 05:13:55;;;;;;;19.60;11.05;;;;;;;;;;5065085;28;20181;-69
2021/10/15 05:16:20;;;;;;;17.13;11.38;;;;;;;;;;5068919;28;20181;-69
2021/10/15 05:18:45;;;;;;;14.80;10.40;;;;;;;;;;5068909;28;20265;-70
2021/10/15 05:21:10;;;;;;;16.73;11.15;;;;;;;;;;5070095;28;20208;-69
2021/10/15 05:23:35;;;;;;;18.67;11.65;;;;;;;;;;5062939;28;20172;-69
2021/10/15 05:26:01;;;;;;;16.50;10.10;;;;;;;;;;5064293;28;20181;-69
2021/10/15 05:28:26;;;;;;;17.27;10.48;;;;;;;;;;5069006;28;20208;-69
2021/10/15 05:30:51;;;;;;;14.65;9.40;;;;;;;;;;5060355;28;20910;-69
2021/10/15 05:33:16;;;;;;;25.75;11.75;;;;;;;;;;5059718;28;20181;-69
2021/10/15 05:35:41;;;;;;;18.00;10.55;;;;;;;;;;5058512;28;20191;-69
2021/10/15 05:38:07;;;;;;;18.88;10.85;;;;;;;;;;5059536;28;20196;-69
2021/10/15 05:40:32;;;;;;;17.05;9.63;;;;;;;;;;5057868;28;20250;-68
2021/10/15 05:42:57;;;;;;;17.50;9.73;;;;;;;;;;5057527;28;20177;-68
2021/10/15 05:45:22;;;;;;;16.15;8.98;;;;;;;;;;5062305;28;20251;-71
2021/10/15 05:47:47;;;;;;;15.88;9.98;;;;;;;;;;5062268;28;20201;-69
2021/10/15 05:50:13;;;;;;;17.35;9.20;;;;;;;;;;5067570;28;20268;-68
2021/10/15 05:52:47;;;;;;;12.85;8.07;;;;;;;;;;5041958;28;20177;-70
2021/10/15 06:00:21;;;;;;;14.50;9.15;;;;;;;;;;5068911;28;20230;-70
2021/10/15 06:02:46;;;;;;;16.90;7.60;;;;;;;;;;5068295;28;20192;-70
2021/10/15 06:15:42;;;;;;;9.40;5.13;;;;;;;;;;5067501;28;20462;-70
2021/10/15 06:18:13;;;;;;;6.03;3.97;;;;;;;;;;5070999;28;20559;-69
2021/10/15 06:20:39;;;;;;;8.68;4.03;;;;;;;;;;5049145;28;20170;-70
2021/10/15 06:23:04;;;;;;;6.82;3.30;;;;;;;;;;5071907;28;20671;-69
2021/10/15 06:25:30;;;;;;;12.35;4.45;;;;;;;;;;5068852;28;20184;-70
2021/10/15 06:28:02;;;;;;;7.35;4.43;;;;;;;;;;5063644;28;20212;-71
2021/10/15 06:30:27;;;;;;;8.32;3.88;;;;;;;;;;5050287;28;20242;-72
2021/10/15 06:32:53;;;;;;;9.18;5.43;;;;;;;;;;5069435;28;20552;-71
2021/10/15 06:35:18;;;;;;;3.58;1.83;;;;;;;;;;5062510;28;20587;-70
2021/10/15 06:37:43;;;;;;;1.48;1.10;;;;;;;;;;5063290;28;20216;-71
2021/10/15 06:40:09;;;;;;;1.60;1.50;;;;;;;;;;5069132;28;20184;-71
2021/10/15 06:42:34;;;;;;;3.08;1.10;;;;;;;;;;5068600;28;20215;-71
2021/10/15 06:45:00;;;;;;;1.10;0.90;;;;;;;;;;5065977;28;20705;-71
2021/10/15 06:47:28;;;;;;;0.90;0.80;;;;;;;;;;5072097;28;20236;-71
2021/10/15 06:49:53;;;;;;;2.15;0.90;;;;;;;;;;5052055;28;20659;-71
2021/10/15 06:52:18;;;;;;;1.15;0.70;;;;;;;;;;5068087;28;20193;-71
2021/10/15 06:54:43;;;;;;;3.58;0.88;;;;;;;;;;5060757;28;20192;-69
2021/10/15 06:57:08;;;;;;;1.98;0.60;;;;;;;;;;5069276;28;20777;-71
2021/10/15 06:59:34;;;;;;;0.90;0.65;;;;;;;;;;5070974;28;20184;-70
2021/10/15 07:02:00;;;;;;;0.85;0.80;;;;;;;;;;5071075;28;20772;-71
2021/10/15 07:04:25;;;;;;;1.93;0.97;;;;;;;;;;5073372;28;20173;-71
2021/10/15 07:06:50;;;;;;;3.23;1.70;;;;;;;;;;5076827;28;20173;-71
2021/10/15 07:09:15;;;;;;;0.80;0.80;;;;;;;;;;5074230;28;20251;-70
2021/10/15 07:11:40;;;;;;;1.92;1.30;;;;;;;;;;5072219;28;20177;-69
2021/10/15 07:14:05;;;;;;;3.20;0.90;;;;;;;;;;5071554;28;20208;-70
2021/10/15 07:16:31;;;;;;;3.70;1.27;;;;;;;;;;5056091;28;20268;-69
2021/10/15 07:18:56;;;;;;;1.87;0.80;;;;;;;;;;5050391;28;20197;-71
2021/10/15 07:21:22;;;;;;;3.55;0.75;;;;;;;;;;5069906;28;20227;-69
2021/10/15 07:23:47;;;;;;;3.33;0.93;;;;;;;;;;5073269;28;20173;-71
2021/10/15 07:26:12;;;;;;;2.80;0.83;;;;;;;;;;5066172;28;20276;-70
2021/10/15 07:28:37;;;;;;;2.27;0.93;;;;;;;;;;5072120;28;20280;-71
2021/10/15 07:31:02;;;;;;;3.15;1.00;;;;;;;;;;5072478;28;20565;-71
2021/10/15 07:33:28;;;;;;;2.25;0.80;;;;;;;;;;5069807;28;20200;-71
2021/10/15 07:35:53;;;;;;;7.20;1.25;;;;;;;;;;5068316;28;20180;-71
2021/10/15 07:38:18;;;;;;;4.13;1.08;;;;;;;;;;5068761;28;20209;-70
2021/10/15 07:40:43;;;;;;;2.90;1.17;;;;;;;;;;5061711;28;20315;-71
2021/10/15 07:43:08;;;;;;;2.42;1.23;;;;;;;;;;5071318;28;20169;-71
2021/10/15 07:45:34;;;;;;;2.15;0.90;;;;;;;;;;5072416;28;20214;-71
2021/10/15 07:47:59;;;;;;;7.20;3.10;;;;;;;;;;5071734;28;20197;-70
2021/10/15 07:50:25;;;;;;;3.83;1.30;;;;;;;;;;5064297;28;20176;-71
2021/10/15 07:52:50;;;;;;;3.72;1.33;;;;;;;;;;5072613;28;20216;-72
2021/10/15 07:55:15;;;;;;;3.95;1.17;;;;;;;;;;5064577;28;20211;-71
2021/10/15 07:57:41;;;;;;;8.57;2.78;;;;;;;;;;5052759;28;20220;-73
2021/10/15 08:00:07;;;;;;;3.65;1.67;;;;;;;;;;5050155;28;20193;-73
2021/10/15 08:02:32;;;;;;;4.22;1.55;;;;;;;;;;5053290;28;20205;-73
2021/10/15 08:04:58;;;;;;;3.25;1.40;;;;;;;;;;5069928;28;20184;-73
2021/10/15 08:07:23;;;;;;;5.63;1.40;;;;;;;;;;5072099;28;20656;-74
2021/10/15 08:09:48;;;;;;;5.68;2.03;;;;;;;;;;5052732;28;20176;-73
2021/10/15 08:12:13;;;;;;;4.47;1.90;;;;;;;;;;5064031;28;20191;-73
2021/10/15 08:14:39;;;;;;;5.97;1.67;;;;;;;;;;5067256;28;20601;-73
2021/10/15 08:17:04;;;;;;;4.55;1.80;;;;;;;;;;5069889;28;20658;-73
2021/10/15 08:19:29;;;;;;;5.10;1.60;;;;;;;;;;5066369;28;20179;-73
2021/10/15 08:21:54;;;;;;;7.82;1.48;;;;;;;;;;5069613;28;20626;-73
2021/10/15 08:24:19;;;;;;;3.85;1.45;;;;;;;;;;5070967;28;20188;-73
2021/10/15 08:26:44;;;;;;;6.80;1.53;;;;;;;;;;5069983;28;20260;-73
2021/10/15 08:29:10;;;;;;;5.07;1.65;;;;;;;;;;5066118;28;20471;-73
2021/10/15 08:31:35;;;;;;;5.53;1.50;;;;;;;;;;5046600;28;20700;-73
2021/10/15 08:34:02;;;;;;;5.95;1.80;;;;;;;;;;5069530;28;20188;-73
2021/10/15 08:36:27;;;;;;;8.05;1.77;;;;;;;;;;5068076;28;20185;-72
2021/10/15 08:38:53;;;;;;;5.18;1.55;;;;;;;;;;5067613;28;20246;-73
2021/10/15 08:41:23;;;;;;;5.05;1.95;;;;;;;;;;5067467;28;20201;-73
2021/10/15 08:43:48;;;;;;;4.30;1.23;;;;;;;;;;5069376;28;20550;-72
2021/10/15 08:46:13;;;;;;;7.57;3.17;;;;;;;;;;5070415;28;20180;-72
2021/10/15 08:48:39;;;;;;;5.70;1.50;;;;;;;;;;5069226;28;20274;-73
2021/10/15 08:51:05;;;;;;;3.95;1.42;;;;;;;;;;5071352;28;20180;-73
2021/10/15 08:53:30;;;;;;;8.63;2.35;;;;;;;;;;5068083;28;20596;-73
2021/10/15 08:55:55;;;;;;;4.40;1.50;;;;;;;;;;5070009;28;20197;-72
2021/10/15 08:58:20;;;;;;;11.75;2.90;;;;;;;;;;5067155;28;20216;-73
2021/10/15 09:00:56;;;;;;;4.38;1.52;;;;;;;;;;5050894;28;20181;-73
2021/10/15 09:03:22;;;;;;;3.90;1.27;;;;;;;;;;5069564;28;20176;-73
2021/10/15 09:05:51;;;;;;;5.05;1.63;;;;;;;;;;5064406;28;20844;-72
2021/10/15 09:08:17;;;;;;;5.43;2.08;;;;;;;;;;5062987;28;20198;-72
2021/10/15 09:10:42;;;;;;;7.05;1.65;;;;;;;;;;5066985;28;20671;-72
2021/10/15 09:13:15;;;;;;;9.50;1.80;;;;;;;;;;5068448;28;20161;-73
2021/10/15 09:15:40;;;;;;;5.00;1.92;;;;;;;;;;5066927;28;20165;-72
2021/10/15 09:18:09;;;;;;;7.30;1.60;;;;;;;;;;5066550;28;20288;-72
2021/10/15 09:20:35;;;;;;;4.78;1.50;;;;;;;;;;5067604;28;20207;-72
2021/10/15 09:23:00;;;;;;;5.80;1.92;;;;;;;;;;5051636;28;20634;-72
2021/10/15 09:25:32;;;;;;;9.30;1.95;;;;;;;;;;5069006;28;20180;-73
2021/10/15 09:27:58;;;;;;;5.95;1.45;;;;;;;;;;5067812;28;20572;-73
2021/10/15 09:30:25;;;;;;;7.45;1.70;;;;;;;;;;5069102;28;20177;-72
2021/10/15 09:32:54;;;;;;;5.63;1.20;;;;;;;;;;5071348;28;20180;-72
2021/10/15 09:35:21;;;;;;;5.43;1.50;;;;;;;;;;5067204;28;20553;-73
2021/10/15 09:37:48;;;;;;;8.93;1.63;;;;;;;;;;5070447;28;20337;-72
2021/10/15 09:40:13;;;;;;;7.88;1.40;;;;;;;;;;5068839;28;20705;-72
2021/10/15 09:42:40;;;;;;;6.20;2.28;;;;;;;;;;5051667;28;20609;-73
2021/10/15 09:45:12;;;;;;;5.93;1.60;;;;;;;;;;5072249;28;20417;-71
2021/10/15 09:47:37;;;;;;;8.25;1.70;;;;;;;;;;5075151;28;20199;-72
2021/10/15 09:50:04;;;;;;;6.20;2.47;;;;;;;;;;5074770;28;20169;-72
2021/10/15 09:52:35;;;;;;;5.05;1.35;;;;;;;;;;5074577;28;20523;-72
2021/10/15 09:55:03;;;;;;;6.60;1.80;;;;;;;;;;5075084;28;20594;-72
2021/10/15 09:57:29;;;;;;;5.40;1.60;;;;;;;;;;5074607;28;20670;-71
2021/10/15 09:59:55;;;;;;;4.50;1.52;;;;;;;;;;5074765;28;20608;-72
2021/10/15 10:02:22;;;;;;;7.82;1.27;;;;;;;;;;5074876;28;20287;-72
2021/10/15 10:04:47;;;;;;;8.80;1.75;;;;;;;;;;5074967;28;20255;-72
2021/10/15 10:07:12;;;;;;;7.63;1.95;;;;;;;;;;5072232;28;20197;-72
2021/10/15 10:09:37;;;;;;;10.23;1.60;;;;;;;;;;5074234;28;20179;-71
2021/10/15 10:12:03;;;;;;;4.53;1.37;;;;;;;;;;5073396;28;20228;-72
2021/10/15 10:14:28;;;;;;;4.80;1.20;;;;;;;;;;5071252;28;20476;-72
2021/10/15 10:16:54;;;;;;;6.03;1.13;;;;;;;;;;5071522;28;20192;-72
2021/10/15 10:19:21;;;;;;;7.57;1.45;;;;;;;;;;5069667;28;20666;-72
2021/10/15 10:21:46;;;;;;;7.13;1.33;;;;;;;;;;5072782;28;20201;-71
2021/10/15 10:24:17;;;;;;;6.50;1.27;;;;;;;;;;5072824;28;20555;-71
2021/10/15 10:26:43;;;;;;;4.63;1.30;;;;;;;;;;5054984;28;20444;-70
2021/10/15 10:29:09;;;;;;;5.32;1.23;;;;;;;;;;5072644;28;20228;-71
2021/10/15 10:31:34;;;;;;;7.30;1.23;;;;;;;;;;5070195;28;20201;-70
2021/10/15 10:34:00;;;;;;;8.93;1.35;;;;;;;;;;5070911;28;20537;-71
2021/10/15 10:36:27;;;;;;;5.65;1.50;;;;;;;;;;5065537;28;20181;-71
2021/10/15 10:38:52;;;;;;;5.70;1.60;;;;;;;;;;5077264;28;20615;-71
2021/10/15 10:41:19;;;;;;;9.63;1.83;;;;;;;;;;5074831;28;20220;-71
2021/10/15 10:43:44;;;;;;;4.50;1.33;;;;;;;;;;5053514;28;20330;-72
2021/10/15 10:46:12;;;;;;;5.63;1.40;;;;;;;;;;5070166;28;20719;-71
2021/10/15 10:48:47;;;;;;;7.47;1.20;;;;;;;;;;5058484;28;20696;-72
2021/10/15 10:51:12;;;;;;;5.13;1.20;;;;;;;;;;5072248;28;20188;-72
2021/10/15 10:53:58;;;;;;;7.38;1.70;;;;;;;;;;5075395;28;20193;-72
2021/10/15 10:56:38;;;;;;;5.53;1.08;;;;;;;;;;5067961;28;20262;-72
2021/10/15 10:59:15;;;;;;;2.78;1.02;;;;;;;;;;5073071;28;20265;-70
2021/10/15 11:01:50;;;;;;;4.50;1.00;;;;;;;;;;5071341;28;20669;-71
2021/10/15 11:04:29;;;;;;;5.15;1.13;;;;;;;;;;5070317;28;20184;-71
2021/10/15 11:07:00;;;;;;;5.32;1.38;;;;;;;;;;5070000;28;20172;-71
2021/10/15 11:09:45;;;;;;;6.85;1.50;;;;;;;;;;5068888;28;20173;-71
2021/10/15 11:12:11;;;;;;;4.38;1.10;;;;;;;;;;5073265;28;20268;-72
2021/10/15 11:14:47;;;;;;;5.75;1.13;;;;;;;;;;5071109;28;20696;-71
2021/10/15 11:17:13;;;;;;;2.38;0.88;;;;;;;;;;5070409;28;20188;-71
2021/10/15 11:19:38;;;;;;;5.47;1.20;;;;;;;;;;5069664;28;20553;-71
2021/10/15 11:22:03;;;;;;;8.90;2.17;;;;;;;;;;5072308;28;20288;-71
2021/10/15 11:24:28;;;;;;;3.42;1.08;;;;;;;;;;5072374;28;20184;-70
2021/10/15 11:26:55;;;;;;;4.17;1.27;;;;;;;;;;5071085;28;20602;-70
2021/10/15 11:29:20;;;;;;;5.45;1.58;;;;;;;;;;5053964;28;20496;-71
2021/10/15 11:31:55;;;;;;;6.72;1.60;;;;;;;;;;5072394;28;20211;-71
2021/10/15 11:34:21;;;;;;;8.00;1.52;;;;;;;;;;5072800;28;20204;-70
2021/10/15 11:36:46;;;;;;;7.28;1.17;;;;;;;;;;5070624;28;20258;-70
2021/10/15 11:39:11;;;;;;;7.63;1.30;;;;;;;;;;5070700;28;20208;-70
2021/10/15 11:41:49;;;;;;;8.05;1.60;;;;;;;;;;5072206;28;20283;-70
2021/10/15 11:44:15;;;;;;;5.82;1.75;;;;;;;;;;5072714;28;20188;-73
2021/10/15 11:46:40;;;;;;;7.07;1.23;;;;;;;;;;5073012;28;20634;-72
2021/10/15 11:49:05;;;;;;;6.18;1.27;;;;;;;;;;5053861;28;20192;-72
2021/10/15 11:51:31;;;;;;;7.33;1.57;;;;;;;;;;5071967;28;20173;-72
2021/10/15 11:53:58;;;;;;;5.97;1.58;;;;;;;;;;5072468;28;20760;-72
2021/10/15 11:56:28;;;;;;;9.68;2.20;;;;;;;;;;5070653;28;20562;-72
2021/10/15 11:58:55;;;;;;;6.85;1.50;;;;;;;;;;5070838;28;20217;-70
2021/10/15 12:01:21;;;;;;;8.30;1.40;;;;;;;;;;5071902;28;20219;-71
2021/10/15 12:03:50;;;;;;;8.07;1.90;;;;;;;;;;5071529;28;20177;-72
2021/10/15 12:06:24;;;;;;;6.57;1.70;;;;;;;;;;5070414;28;20165;-73
2021/10/15 12:08:49;;;;;;;7.95;2.10;;;;;;;;;;5071611;28;20189;-71
2021/10/15 12:11:17;;;;;;;7.72;1.75;;;;;;;;;;5071565;28;20185;-71
2021/10/15 12:13:42;;;;;;;6.82;1.73;;;;;;;;;;5070335;28;20213;-71
2021/10/15 12:16:28;;;;;;;8.55;2.35;;;;;;;;;;5069752;28;20201;-73
2021/10/15 12:19:04;;;;;;;7.47;1.80;;;;;;;;;;5050667;28;20213;-71
2021/10/15 12:21:33;;;;;;;9.88;2.78;;;;;;;;;;5051022;28;20672;-71
2021/10/15 12:23:59;;;;;;;12.13;1.90;;;;;;;;;;5070518;28;20542;-72
2021/10/15 12:26:24;;;;;;;10.13;2.17;;;;;;;;;;5069620;28;20269;-71
2021/10/15 12:28:49;;;;;;;8.30;2.15;;;;;;;;;;5067983;28;20242;-71
2021/10/15 12:31:22;;;;;;;8.52;1.80;;;;;;;;;;5063450;28;20204;-72
2021/10/15 12:34:08;;;;;;;8.65;1.95;;;;;;;;;;5071812;28;20176;-71
2021/10/15 12:36:34;;;;;;;15.98;3.33;;;;;;;;;;5065744;28;20561;-71
2021/10/15 12:39:15;;;;;;;6.57;1.88;;;;;;;;;;5069732;28;20195;-71
2021/10/15 12:41:40;;;;;;;11.52;1.95;;;;;;;;;;5068244;28;20214;-72
2021/10/15 12:44:22;;;;;;;10.23;1.80;;;;;;;;;;5064143;28;20181;-72
2021/10/15 12:47:13;;;;;;;11.63;2.50;;;;;;;;;;5070562;28;20267;-71
2021/10/15 12:49:58;;;;;;;7.78;1.88;;;;;;;;;;5055857;28;20190;-72
2021/10/15 12:52:30;;;;;;;8.07;2.15;;;;;;;;;;5068797;28;20717;-72
2021/10/15 12:54:55;;;;;;;11.00;2.97;;;;;;;;;;5052382;28;20322;-72
2021/10/15 12:57:21;;;;;;;9.93;2.73;;;;;;;;;;5069848;28;20279;-71
2021/10/15 13:00:05;;;;;;;11.68;2.25;;;;;;;;;;5070427;28;20429;-71
2021/10/15 13:02:30;;;;;;;8.07;2.05;;;;;;;;;;5062874;28;20189;-71
2021/10/15 13:04:56;;;;;;;9.35;2.13;;;;;;;;;;5064156;28;20553;-72
2021/10/15 13:07:22;;;;;;;7.00;1.98;;;;;;;;;;5071140;28;20246;-71
2021/10/15 13:09:47;;;;;;;8.03;1.73;;;;;;;;;;5069686;28;20189;-71
2021/10/15 13:12:12;;;;;;;9.47;1.93;;;;;;;;;;5070668;28;20923;-72
2021/10/15 13:14:37;;;;;;;9.47;2.27;;;;;;;;;;5070848;28;20464;-70
2021/10/15 13:17:02;;;;;;;8.30;1.93;;;;;;;;;;5065629;28;20945;-71
2021/10/15 13:19:27;;;;;;;6.43;1.53;;;;;;;;;;5065743;28;20425;-71
2021/10/15 13:21:53;;;;;;;11.43;2.37;;;;;;;;;;5064476;28;21029;-70
2021/10/15 13:24:18;;;;;;;13.95;2.40;;;;;;;;;;5067367;28;20413;-70
2021/10/15 13:26:43;;;;;;;9.05;2.50;;;;;;;;;;5067591;28;20177;-71
2021/10/15 13:29:08;;;;;;;7.03;1.80;;;;;;;;;;5067202;28;20335;-70
2021/10/15 13:31:33;;;;;;;10.70;1.98;;;;;;;;;;5063966;28;20662;-72
2021/10/15 13:34:00;;;;;;;6.30;1.63;;;;;;;;;;5067754;28;20653;-70
2021/10/15 13:36:25;;;;;;;8.63;2.40;;;;;;;;;;5048699;28;20205;-71
2021/10/15 13:38:51;;;;;;;6.43;1.42;;;;;;;;;;5063340;28;20708;-70
2021/10/15 13:41:20;;;;;;;4.13;1.58;;;;;;;;;;5067437;28;20193;-70
2021/10/15 13:44:38;;;;;;;7.10;1.67;;;;;;;;;;5070955;28;20183;-71
2021/10/15 13:52:05;;;;;;;5.95;2.20;;;;;;;;;;5069986;28;20211;-72
2021/10/15 13:54:31;;;;;;;4.05;1.40;;;;;;;;;;5067153;28;20635;-72
2021/10/15 13:57:04;;;;;;;8.05;2.20;;;;;;;;;;5069318;28;20222;-70
2021/10/15 13:59:31;;;;;;;9.18;1.65;;;;;;;;;;5081124;22;20228;-72
2021/10/15 14:01:58;;;;;;;7.10;2.25;;;;;;;;;;5063619;28;20262;-72
2021/10/15 14:04:38;;;;;;;9.80;1.80;;;;;;;;;;5057978;28;20170;-73
2021/10/15 14:07:09;;;;;;;12.88;1.88;;;;;;;;;;5064045;28;20666;-72
2021/10/15 14:09:36;;;;;;;5.28;1.98;;;;;;;;;;5048364;28;20212;-72
2021/10/15 14:12:01;;;;;;;11.13;2.15;;;;;;;;;;5051382;28;20181;-72
2021/10/15 14:14:27;;;;;;;10.35;1.90;;;;;;;;;;5070815;28;20188;-74
2021/10/15 14:16:52;;;;;;;8.77;1.77;;;;;;;;;;5068689;28;20184;-74
2021/10/15 14:19:17;;;;;;;8.47;2.27;;;;;;;;;;5065937;28;20213;-72
2021/10/15 14:21:42;;;;;;;9.75;2.40;;;;;;;;;;5069754;28;20523;-72
2021/10/15 14:24:08;;;;;;;9.15;2.05;;;;;;;;;;5069654;28;20208;-74
2021/10/15 14:26:33;;;;;;;5.88;1.90;;;;;;;;;;5069088;28;20252;-74
2021/10/15 14:28:58;;;;;;;7.85;2.22;;;;;;;;;;5067790;28;20563;-72
2021/10/15 14:31:24;;;;;;;6.60;1.98;;;;;;;;;;5070678;28;20177;-73
2021/10/15 14:33:49;;;;;;;7.35;2.08;;;;;;;;;;5056481;28;20185;-73
2021/10/15 14:36:14;;;;;;;6.38;2.25;;;;;;;;;;5055373;28;20565;-73
2021/10/15 14:38:40;;;;;;;8.73;2.03;;;;;;;;;;5072348;28;20219;-73
2021/10/15 14:41:05;;;;;;;6.20;1.95;;;;;;;;;;5071945;28;20425;-73
2021/10/15 14:43:31;;;;;;;5.50;1.70;;;;;;;;;;5074278;28;20692;-73
2021/10/15 14:45:56;;;;;;;5.65;1.75;;;;;;;;;;5054858;28;20173;-73
2021/10/15 14:48:21;;;;;;;9.02;2.20;;;;;;;;;;5066114;28;20577;-73
2021/10/15 14:50:46;;;;;;;12.38;3.35;;;;;;;;;;5069784;28;20259;-73